Time;durP1;ratioP1;P1;durP2;ratioP2;P2;SDS_P1;SDS_P2;PMS_P1;PMS_P2;Temp;Humidity;BMP_temperature;BMP_pressure;BME280_temperature;BME280_humidity;BME280_pressure;Samples;Min_cycle;Max_cycle;Signal;HPM_P1;HPM_P2
2023/10/29 00:00:28;;;;;;;1.48;0.60;;;14.10;99.90;;;;;;4264816;27;20038;-56
2023/10/29 00:02:32;;;;;;;1.85;0.85;;;14.10;99.90;;;;;;4264486;27;20061;-56
2023/10/29 00:04:37;;;;;;;2.65;0.70;;;14.10;99.90;;;;;;4264700;27;20046;-58
2023/10/29 00:06:39;;;;;;;1.40;0.70;;;14.10;99.90;;;;;;4264737;27;20047;-59
2023/10/29 00:08:41;;;;;;;0.75;0.50;;;14.10;99.90;;;;;;4264721;27;20130;-58
2023/10/29 00:10:43;;;;;;;0.80;0.47;;;14.10;99.90;;;;;;4266257;27;20054;-59
2023/10/29 00:12:45;;;;;;;0.93;0.60;;;14.10;99.90;;;;;;4268317;27;20042;-58
2023/10/29 00:14:48;;;;;;;1.35;0.40;;;14.20;99.90;;;;;;4268362;27;20141;-58
2023/10/29 00:16:50;;;;;;;1.60;0.80;;;14.20;99.90;;;;;;4267545;27;20102;-61
2023/10/29 00:18:53;;;;;;;2.70;0.90;;;14.30;99.90;;;;;;4267946;27;20099;-60
2023/10/29 00:20:56;;;;;;;1.20;0.70;;;14.30;99.90;;;;;;4268232;27;20072;-57
2023/10/29 00:22:58;;;;;;;4.07;0.70;;;14.30;99.90;;;;;;4268165;27;20415;-59
2023/10/29 00:25:00;;;;;;;5.15;0.90;;;14.40;99.90;;;;;;4268393;27;20047;-57
2023/10/29 00:27:02;;;;;;;4.65;0.77;;;14.30;99.90;;;;;;4268050;27;20088;-59
2023/10/29 00:29:04;;;;;;;2.53;0.60;;;14.40;99.90;;;;;;4267954;27;20043;-56
2023/10/29 00:31:06;;;;;;;2.15;0.80;;;14.40;99.90;;;;;;4267727;27;20050;-59
2023/10/29 00:33:09;;;;;;;2.83;0.85;;;14.50;99.90;;;;;;4268048;27;20453;-57
2023/10/29 00:35:13;;;;;;;3.47;1.10;;;14.40;99.90;;;;;;4268035;27;20043;-57
2023/10/29 00:37:18;;;;;;;5.03;0.85;;;14.50;99.90;;;;;;4267876;27;20081;-57
2023/10/29 00:39:20;;;;;;;4.57;0.80;;;14.50;99.90;;;;;;4267670;27;20061;-57
2023/10/29 00:41:22;;;;;;;2.65;0.70;;;14.40;99.90;;;;;;4267625;27;20046;-58
2023/10/29 00:43:24;;;;;;;3.20;0.95;;;14.50;99.90;;;;;;4267513;27;20055;-59
2023/10/29 00:45:27;;;;;;;4.32;1.10;;;14.50;99.90;;;;;;4267317;27;20476;-56
2023/10/29 00:47:29;;;;;;;1.83;0.90;;;14.50;99.90;;;;;;4268250;27;20039;-58
2023/10/29 00:49:32;;;;;;;4.65;1.20;;;14.50;99.90;;;;;;4269092;27;20046;-62
2023/10/29 00:51:36;;;;;;;5.38;1.60;;;14.50;99.90;;;;;;4269903;27;20046;-60
2023/10/29 00:53:38;;;;;;;4.03;1.00;;;14.60;99.90;;;;;;4267991;27;20039;-59
2023/10/29 00:55:41;;;;;;;3.80;1.20;;;14.60;99.90;;;;;;4267713;27;20045;-55
2023/10/29 00:57:43;;;;;;;3.67;1.48;;;14.60;99.90;;;;;;4249091;27;20085;-56
2023/10/29 00:59:47;;;;;;;5.18;1.10;;;14.60;99.90;;;;;;4267181;27;20050;-58
2023/10/29 01:01:49;;;;;;;7.32;1.17;;;14.60;99.90;;;;;;4267600;27;20050;-56
2023/10/29 01:03:51;;;;;;;5.28;1.30;;;14.60;99.90;;;;;;4267441;27;20067;-57
2023/10/29 01:05:57;;;;;;;4.20;1.10;;;14.60;99.90;;;;;;4267292;27;20416;-59
2023/10/29 01:08:02;;;;;;;2.38;0.95;;;14.70;99.90;;;;;;4267288;27;20046;-59
2023/10/29 01:10:06;;;;;;;7.70;1.60;;;14.70;99.90;;;;;;4267461;27;20054;-56
2023/10/29 01:12:15;;;;;;;3.15;1.30;;;14.80;99.90;;;;;;4267352;27;20476;-56
2023/10/29 01:14:18;;;;;;;7.13;1.55;;;14.80;99.90;;;;;;4266819;27;20068;-55
2023/10/29 01:16:20;;;;;;;4.80;1.10;;;14.80;99.90;;;;;;4267074;27;20054;-56
2023/10/29 01:18:22;;;;;;;5.20;1.48;;;14.90;99.90;;;;;;4266982;27;20045;-60
2023/10/29 01:20:24;;;;;;;8.63;1.77;;;14.80;99.90;;;;;;4266740;27;20050;-61
2023/10/29 01:22:26;;;;;;;10.25;2.10;;;14.80;99.90;;;;;;4266414;27;20475;-60
2023/10/29 01:24:29;;;;;;;8.48;1.42;;;14.90;99.90;;;;;;4266742;27;20462;-61
2023/10/29 01:26:31;;;;;;;5.63;1.38;;;14.90;99.90;;;;;;4266640;27;20122;-61
2023/10/29 01:28:34;;;;;;;6.28;1.60;;;15.00;99.90;;;;;;4266714;27;20107;-61
2023/10/29 01:30:36;;;;;;;5.57;1.80;;;15.00;99.90;;;;;;4266448;27;20070;-60
2023/10/29 01:32:38;;;;;;;6.15;2.03;;;15.00;99.90;;;;;;4266538;27;20053;-60
2023/10/29 01:34:40;;;;;;;4.25;1.45;;;15.00;99.90;;;;;;4266771;27;20049;-58
2023/10/29 01:36:42;;;;;;;5.57;1.70;;;15.10;99.90;;;;;;4267314;27;20042;-66
2023/10/29 01:38:44;;;;;;;7.45;1.83;;;15.00;99.90;;;;;;4267337;27;20072;-60
2023/10/29 01:40:48;;;;;;;6.40;1.85;;;15.10;99.90;;;;;;4266940;27;20103;-59
2023/10/29 01:42:50;;;;;;;9.00;2.08;;;15.10;99.90;;;;;;4247865;27;20051;-60
2023/10/29 01:44:52;;;;;;;9.60;1.60;;;15.00;99.90;;;;;;4249039;27;20130;-59
2023/10/29 01:46:54;;;;;;;7.93;1.70;;;15.00;99.90;;;;;;4249191;27;20040;-59
2023/10/29 01:48:56;;;;;;;8.23;2.42;;;15.10;99.90;;;;;;4249237;27;20051;-61
2023/10/29 01:51:03;;;;;;;8.65;2.13;;;15.10;99.90;;;;;;4247988;27;20043;-60
2023/10/29 01:53:05;;;;;;;8.98;2.17;;;15.20;99.90;;;;;;4249169;27;20047;-58
2023/10/29 01:55:08;;;;;;;11.70;2.25;;;15.10;99.90;;;;;;4249094;27;20092;-57
2023/10/29 01:57:11;;;;;;;15.02;2.55;;;15.10;99.90;;;;;;4249332;27;20137;-57
2023/10/29 01:59:14;;;;;;;7.07;1.90;;;15.10;99.90;;;;;;4248992;27;20531;-57
2023/10/29 02:01:16;;;;;;;8.82;1.95;;;15.10;99.90;;;;;;4249171;27;20050;-58
2023/10/29 02:03:18;;;;;;;10.10;2.05;;;15.10;99.90;;;;;;4249314;27;20047;-59
2023/10/29 02:05:21;;;;;;;12.93;2.78;;;15.10;99.90;;;;;;4249041;27;20049;-59
2023/10/29 02:07:23;;;;;;;10.27;2.22;;;15.20;99.90;;;;;;4249450;27;20047;-58
2023/10/29 02:09:27;;;;;;;9.20;2.22;;;15.10;99.90;;;;;;4250805;27;20047;-62
2023/10/29 02:11:30;;;;;;;8.30;2.17;;;15.10;99.90;;;;;;4250992;27;20047;-61
2023/10/29 02:13:33;;;;;;;10.85;2.38;;;15.10;99.90;;;;;;4251041;27;20047;-57
2023/10/29 02:15:35;;;;;;;11.05;2.58;;;15.10;99.90;;;;;;4251245;27;20484;-60
2023/10/29 02:17:37;;;;;;;17.00;2.33;;;15.10;99.90;;;;;;4250467;27;20062;-60
2023/10/29 02:19:39;;;;;;;8.30;2.15;;;15.20;99.90;;;;;;4249019;27;20320;-57
2023/10/29 02:21:41;;;;;;;9.25;2.35;;;15.20;99.90;;;;;;4248931;27;20047;-57
2023/10/29 02:23:45;;;;;;;8.50;2.22;;;15.20;99.90;;;;;;4248961;27;20113;-56
2023/10/29 02:25:47;;;;;;;15.20;2.92;;;15.20;99.90;;;;;;4248924;27;20043;-57
2023/10/29 02:27:49;;;;;;;13.60;3.28;;;15.10;99.90;;;;;;4248921;27;20072;-58
2023/10/29 02:29:52;;;;;;;13.40;2.40;;;15.20;99.90;;;;;;4249277;27;20055;-57
2023/10/29 02:31:54;;;;;;;11.70;3.00;;;15.10;99.90;;;;;;4249121;27;20104;-57
2023/10/29 02:33:56;;;;;;;12.93;2.85;;;15.10;99.90;;;;;;4247738;27;20049;-58
2023/10/29 02:35:58;;;;;;;11.55;2.90;;;15.10;99.90;;;;;;4248719;27;20142;-56
2023/10/29 02:38:01;;;;;;;14.00;2.50;;;15.10;99.90;;;;;;4248608;27;20043;-57
2023/10/29 02:40:05;;;;;;;13.75;2.53;;;15.10;99.90;;;;;;4248348;27;20035;-59
2023/10/29 02:42:09;;;;;;;14.20;2.92;;;15.10;99.90;;;;;;4246011;27;20062;-60
2023/10/29 02:44:11;;;;;;;10.80;2.22;;;15.10;99.90;;;;;;4248461;27;20051;-58
2023/10/29 02:46:13;;;;;;;10.10;2.28;;;15.10;99.90;;;;;;4248497;27;20047;-60
2023/10/29 02:48:15;;;;;;;9.60;2.40;;;15.10;99.90;;;;;;4248528;27;20047;-58
2023/10/29 02:50:17;;;;;;;12.65;2.72;;;15.00;99.90;;;;;;4248302;27;20051;-59
2023/10/29 02:52:19;;;;;;;10.20;2.55;;;15.00;99.90;;;;;;4248408;27;20046;-60
2023/10/29 02:54:21;;;;;;;10.82;2.45;;;15.00;99.90;;;;;;4248136;27;20039;-59
2023/10/29 02:56:25;;;;;;;13.13;2.45;;;15.00;99.90;;;;;;4247865;27;20054;-60
2023/10/29 02:58:27;;;;;;;13.68;2.30;;;15.00;99.90;;;;;;4248475;27;20057;-58
2023/10/29 03:00:29;;;;;;;11.88;2.45;;;15.00;99.90;;;;;;4246884;27;20077;-58
2023/10/29 03:02:31;;;;;;;13.85;2.88;;;14.90;99.90;;;;;;4248163;27;20081;-60
2023/10/29 03:04:33;;;;;;;10.73;2.80;;;14.90;99.90;;;;;;4248372;27;20397;-60
2023/10/29 03:06:38;;;;;;;11.65;2.45;;;14.90;99.90;;;;;;4248097;27;20134;-58
2023/10/29 03:08:40;;;;;;;14.82;2.60;;;14.90;99.90;;;;;;4247985;27;20047;-59
2023/10/29 03:10:42;;;;;;;16.55;2.83;;;14.90;99.90;;;;;;4247939;27;20052;-58
2023/10/29 03:12:45;;;;;;;12.02;3.10;;;14.90;99.90;;;;;;4248002;27;20071;-58
2023/10/29 03:14:48;;;;;;;16.85;2.70;;;14.90;99.90;;;;;;4247975;27;20047;-60
2023/10/29 03:16:50;;;;;;;12.45;2.97;;;14.90;99.90;;;;;;4248922;27;20408;-64
2023/10/29 03:18:53;;;;;;;13.30;3.20;;;14.90;99.90;;;;;;4248476;27;20043;-57
2023/10/29 03:20:56;;;;;;;13.43;2.63;;;14.90;99.90;;;;;;4247876;27;20058;-59
2023/10/29 03:22:58;;;;;;;10.13;2.55;;;14.80;99.90;;;;;;4248039;27;20092;-58
2023/10/29 03:25:00;;;;;;;12.93;3.40;;;14.80;99.90;;;;;;4247812;27;20051;-57
2023/10/29 03:27:03;;;;;;;13.43;3.15;;;14.80;99.90;;;;;;4246775;27;20107;-60
2023/10/29 03:29:07;;;;;;;15.20;3.03;;;14.80;99.90;;;;;;4248127;27;20412;-57
2023/10/29 03:31:12;;;;;;;17.13;3.10;;;14.80;99.90;;;;;;4247933;27;20055;-57
2023/10/29 03:33:14;;;;;;;16.05;3.30;;;14.80;99.90;;;;;;4246842;27;20073;-59
2023/10/29 03:35:17;;;;;;;17.40;3.17;;;14.80;99.90;;;;;;4247709;27;20047;-57
2023/10/29 03:37:19;;;;;;;12.90;2.83;;;14.70;99.90;;;;;;4248080;27;20445;-56
2023/10/29 03:39:21;;;;;;;13.85;2.90;;;14.70;99.90;;;;;;4246389;27;20718;-58
2023/10/29 03:41:23;;;;;;;18.08;3.35;;;14.60;99.90;;;;;;4250297;27;20047;-59
2023/10/29 03:43:26;;;;;;;17.90;3.13;;;14.60;99.90;;;;;;4264451;27;20046;-59
2023/10/29 03:45:29;;;;;;;16.50;3.78;;;14.60;99.90;;;;;;4265213;27;20062;-59
2023/10/29 03:47:31;;;;;;;16.75;3.33;;;14.60;99.90;;;;;;4264979;27;20062;-57
2023/10/29 03:49:34;;;;;;;11.02;2.78;;;14.60;99.90;;;;;;4264635;27;20119;-58
2023/10/29 03:51:42;;;;;;;13.05;2.85;;;14.60;99.90;;;;;;4264905;27;20053;-58
2023/10/29 03:53:44;;;;;;;16.63;3.38;;;14.60;99.90;;;;;;4265259;27;20407;-58
2023/10/29 03:55:50;;;;;;;10.70;2.63;;;14.50;99.90;;;;;;4265993;27;20130;-62
2023/10/29 03:57:53;;;;;;;;;;;14.50;99.90;;;;;;4268103;27;20451;-57
2023/10/29 03:59:55;;;;;;;16.23;3.63;;;14.50;99.90;;;;;;4267342;27;19933;-58
2023/10/29 04:01:59;;;;;;;15.80;3.50;;;14.50;99.90;;;;;;4265731;27;20088;-58
2023/10/29 04:04:03;;;;;;;17.15;3.45;;;14.50;99.90;;;;;;4264829;27;20099;-57
2023/10/29 04:06:09;;;;;;;13.55;3.30;;;14.50;99.90;;;;;;4247346;28;20407;-62
2023/10/29 04:08:11;;;;;;;13.73;3.70;;;14.40;99.90;;;;;;4265839;27;20047;-57
2023/10/29 04:10:13;;;;;;;19.25;4.05;;;14.40;99.90;;;;;;4247055;28;20485;-58
2023/10/29 04:12:15;;;;;;;17.55;3.63;;;14.40;99.90;;;;;;4266624;27;20070;-58
2023/10/29 04:14:17;;;;;;;19.02;3.47;;;14.40;99.90;;;;;;4266300;27;20069;-58
2023/10/29 04:16:19;;;;;;;18.25;4.30;;;14.40;99.90;;;;;;4265842;27;20053;-58
2023/10/29 04:18:27;;;;;;;15.82;3.28;;;14.40;99.90;;;;;;4265500;27;20066;-58
2023/10/29 04:20:29;;;;;;;17.05;3.85;;;14.30;99.90;;;;;;4266156;27;20410;-56
2023/10/29 04:22:32;;;;;;;19.45;3.63;;;14.40;99.90;;;;;;4264966;27;20047;-56
2023/10/29 04:24:35;;;;;;;17.55;3.10;;;14.40;99.90;;;;;;4264342;27;20121;-59
2023/10/29 04:26:37;;;;;;;21.77;4.32;;;14.30;99.90;;;;;;4264674;27;20043;-59
2023/10/29 04:28:40;;;;;;;19.17;4.07;;;14.30;99.90;;;;;;4264867;27;20051;-56
2023/10/29 04:30:42;;;;;;;19.92;3.67;;;14.30;99.90;;;;;;4264610;27;20124;-59
2023/10/29 04:32:44;;;;;;;19.27;4.70;;;14.20;99.90;;;;;;4264729;27;20389;-57
2023/10/29 04:34:48;;;;;;;15.45;3.92;;;14.20;99.90;;;;;;4264373;27;20100;-59
2023/10/29 04:36:51;;;;;;;20.98;4.05;;;14.20;99.90;;;;;;4264372;27;20050;-59
2023/10/29 04:38:54;;;;;;;24.67;4.43;;;14.20;99.90;;;;;;4263951;27;20053;-57
2023/10/29 04:40:56;;;;;;;17.48;3.90;;;14.30;99.90;;;;;;4245870;28;20051;-58
2023/10/29 04:42:58;;;;;;;20.70;3.70;;;14.30;99.90;;;;;;4264401;27;20488;-58
2023/10/29 04:45:00;;;;;;;15.30;3.50;;;14.20;99.90;;;;;;4264569;27;20551;-57
2023/10/29 04:47:03;;;;;;;22.20;4.43;;;14.20;99.90;;;;;;4264604;27;20372;-57
2023/10/29 04:49:06;;;;;;;21.25;4.05;;;14.20;99.90;;;;;;4264634;27;20042;-57
2023/10/29 04:51:09;;;;;;;18.63;3.25;;;14.20;99.90;;;;;;4264726;27;20113;-58
2023/10/29 04:53:11;;;;;;;13.73;2.88;;;14.30;99.90;;;;;;4264508;27;20039;-57
2023/10/29 04:55:14;;;;;;;18.77;3.42;;;14.20;99.90;;;;;;4264297;27;20054;-57
2023/10/29 04:57:20;;;;;;;20.65;4.78;;;14.20;99.90;;;;;;4264965;27;20129;-57
2023/10/29 04:59:22;;;;;;;19.33;3.95;;;14.20;99.90;;;;;;4267865;27;20057;-57
2023/10/29 05:01:24;;;;;;;23.65;4.18;;;14.20;99.90;;;;;;4267999;27;20070;-56
2023/10/29 05:03:29;;;;;;;15.68;3.78;;;14.10;99.90;;;;;;4267386;27;20038;-58
2023/10/29 05:05:31;;;;;;;15.32;3.63;;;14.20;99.90;;;;;;4267331;27;20499;-61
2023/10/29 05:07:35;;;;;;;16.88;4.15;;;14.20;99.90;;;;;;4266869;27;20117;-58
2023/10/29 05:09:37;;;;;;;18.15;4.55;;;14.10;99.90;;;;;;4267011;27;20051;-59
2023/10/29 05:11:39;;;;;;;19.23;4.03;;;14.10;99.90;;;;;;4267423;27;20042;-57
2023/10/29 05:13:41;;;;;;;17.98;4.10;;;14.10;99.90;;;;;;4268076;27;20392;-57
2023/10/29 05:15:44;;;;;;;17.17;4.05;;;14.10;99.90;;;;;;4268598;27;20047;-60
2023/10/29 05:17:46;;;;;;;28.58;5.15;;;14.10;99.90;;;;;;4269149;27;20043;-60
2023/10/29 05:19:48;;;;;;;23.50;4.68;;;14.10;99.90;;;;;;4270075;27;20043;-59
2023/10/29 05:21:50;;;;;;;20.98;4.78;;;14.10;99.90;;;;;;4248593;27;20102;-59
2023/10/29 05:23:54;;;;;;;15.00;4.20;;;14.10;99.90;;;;;;4267075;27;20438;-57
2023/10/29 05:25:57;;;;;;;25.02;5.05;;;14.10;99.90;;;;;;4268078;27;20143;-57
2023/10/29 05:27:58;;;;;;;23.17;3.85;;;14.10;99.90;;;;;;4269207;27;20391;-58
2023/10/29 05:30:01;;;;;;;13.15;3.38;;;14.10;99.90;;;;;;4269345;27;20071;-58
2023/10/29 05:32:03;;;;;;;21.70;4.07;;;14.10;99.90;;;;;;4268922;27;20074;-57
2023/10/29 05:34:06;;;;;;;24.77;4.93;;;14.10;99.90;;;;;;4267127;27;20537;-57
2023/10/29 05:36:09;;;;;;;19.40;4.47;;;14.10;99.90;;;;;;4266486;27;20553;-57
2023/10/29 05:38:12;;;;;;;24.13;5.15;;;14.10;99.90;;;;;;4267069;27;20043;-56
2023/10/29 05:40:16;;;;;;;18.08;3.97;;;14.10;99.90;;;;;;4248315;27;20058;-57
2023/10/29 05:42:18;;;;;;;19.88;4.95;;;14.10;99.90;;;;;;4266526;27;20548;-57
2023/10/29 05:44:20;;;;;;;13.93;3.65;;;14.00;99.90;;;;;;4266881;27;20403;-64
2023/10/29 05:46:22;;;;;;;24.45;5.03;;;14.00;99.90;;;;;;4266614;27;20057;-57
2023/10/29 05:48:25;;;;;;;15.68;4.20;;;14.10;99.90;;;;;;4247902;27;20100;-57
2023/10/29 05:50:27;;;;;;;21.50;4.13;;;14.10;99.90;;;;;;4266132;27;20085;-56
2023/10/29 05:52:30;;;;;;;17.90;4.13;;;14.10;99.90;;;;;;4266410;27;20043;-57
2023/10/29 05:54:32;;;;;;;20.60;4.05;;;14.10;99.90;;;;;;4266622;27;20480;-57
2023/10/29 05:56:35;;;;;;;14.52;4.07;;;14.10;99.90;;;;;;4266508;27;20491;-57
2023/10/29 05:58:37;;;;;;;21.60;3.92;;;14.10;99.90;;;;;;4266617;27;20078;-57
2023/10/29 06:00:39;;;;;;;17.80;4.63;;;14.10;99.90;;;;;;4266373;27;20495;-57
2023/10/29 06:02:41;;;;;;;15.85;3.30;;;14.10;99.90;;;;;;4266554;27;20544;-57
2023/10/29 06:04:43;;;;;;;16.63;3.80;;;14.00;99.90;;;;;;4265822;27;20452;-58
2023/10/29 06:06:45;;;;;;;22.70;4.00;;;14.00;99.90;;;;;;4266396;27;20050;-58
2023/10/29 06:08:49;;;;;;;16.63;4.00;;;14.00;99.90;;;;;;4266136;27;20047;-57
2023/10/29 06:10:51;;;;;;;18.42;3.70;;;14.00;99.90;;;;;;4266038;27;20054;-57
2023/10/29 06:12:54;;;;;;;21.15;3.95;;;14.10;99.90;;;;;;4266497;27;20074;-57
2023/10/29 06:14:56;;;;;;;19.33;4.25;;;14.10;99.90;;;;;;4266243;27;20125;-57
2023/10/29 06:16:59;;;;;;;15.65;3.25;;;14.00;99.90;;;;;;4266092;27;20495;-57
2023/10/29 06:19:16;;;;;;;18.05;4.10;;;14.10;99.90;;;;;;4265574;27;20172;-61
2023/10/29 06:21:21;;;;;;;20.65;3.72;;;14.00;99.90;;;;;;4265868;27;20046;-57
2023/10/29 06:23:23;;;;;;;18.17;4.30;;;14.00;99.90;;;;;;4266203;27;20047;-57
2023/10/29 06:25:26;;;;;;;18.10;3.53;;;14.00;99.90;;;;;;4266269;27;20043;-60
2023/10/29 06:27:28;;;;;;;16.70;3.83;;;14.00;99.90;;;;;;4267688;27;20114;-59
2023/10/29 06:29:32;;;;;;;16.63;3.88;;;14.10;99.90;;;;;;4265795;27;20074;-59
2023/10/29 06:31:34;;;;;;;13.45;3.20;;;14.10;99.90;;;;;;4265651;27;20435;-59
2023/10/29 06:33:36;;;;;;;14.90;3.30;;;14.10;99.90;;;;;;4265526;27;20433;-60
2023/10/29 06:35:40;;;;;;;20.27;3.53;;;14.10;99.90;;;;;;4265799;27;20046;-59
2023/10/29 06:37:42;;;;;;;17.85;3.08;;;14.10;99.90;;;;;;4265639;27;20113;-59
2023/10/29 06:39:44;;;;;;;22.60;3.80;;;14.00;99.90;;;;;;4265675;27;20051;-59
2023/10/29 06:41:46;;;;;;;19.60;3.60;;;14.00;99.90;;;;;;4265253;27;20129;-59
2023/10/29 06:43:48;;;;;;;20.88;4.60;;;14.00;99.90;;;;;;4265705;27;20048;-59
2023/10/29 06:45:52;;;;;;;17.35;3.75;;;14.00;99.90;;;;;;4247615;27;20118;-59
2023/10/29 06:47:54;;;;;;;13.70;3.08;;;14.00;99.90;;;;;;4266510;27;20070;-64
2023/10/29 06:49:56;;;;;;;15.40;3.75;;;14.00;99.90;;;;;;4268200;27;20057;-65
2023/10/29 06:51:58;;;;;;;18.42;3.78;;;14.00;99.90;;;;;;4266711;27;20053;-57
2023/10/29 06:54:00;;;;;;;16.40;3.08;;;14.00;99.90;;;;;;4247669;27;20074;-57
2023/10/29 06:56:04;;;;;;;14.93;3.20;;;14.00;99.90;;;;;;4267449;27;20068;-57
2023/10/29 06:58:06;;;;;;;14.38;3.00;;;14.00;99.90;;;;;;4268308;27;20076;-60
2023/10/29 07:00:09;;;;;;;15.32;3.95;;;14.00;99.90;;;;;;4249289;27;20484;-59
2023/10/29 07:02:12;;;;;;;18.77;3.28;;;14.00;99.90;;;;;;4265397;27;20055;-60
2023/10/29 07:04:15;;;;;;;20.05;4.13;;;14.00;99.90;;;;;;4265026;27;20038;-59
2023/10/29 07:06:17;;;;;;;15.70;3.45;;;14.00;99.90;;;;;;4265202;27;20483;-59
2023/10/29 07:08:19;;;;;;;11.60;3.25;;;14.00;99.90;;;;;;4265166;27;20480;-59
2023/10/29 07:10:21;;;;;;;15.80;3.65;;;14.00;99.90;;;;;;4265217;27;20480;-56
2023/10/29 07:12:23;;;;;;;19.95;3.30;;;13.90;99.90;;;;;;4265308;27;20042;-56
2023/10/29 07:14:25;;;;;;;13.68;3.35;;;14.00;99.90;;;;;;4265285;27;20475;-56
2023/10/29 07:16:28;;;;;;;13.68;4.00;;;14.00;99.90;;;;;;4246676;27;20530;-56
2023/10/29 07:18:31;;;;;;;22.67;4.07;;;14.10;99.90;;;;;;4264631;27;20046;-56
2023/10/29 07:20:33;;;;;;;16.73;3.50;;;14.10;99.90;;;;;;4264538;27;20125;-57
2023/10/29 07:22:35;;;;;;;14.95;3.05;;;14.10;99.90;;;;;;4265175;27;20050;-58
2023/10/29 07:24:38;;;;;;;12.60;2.65;;;14.10;99.90;;;;;;4264788;27;20047;-58
2023/10/29 07:26:40;;;;;;;14.32;2.92;;;14.20;99.90;;;;;;4265083;27;20108;-60
2023/10/29 07:28:43;;;;;;;13.30;3.08;;;14.20;99.90;;;;;;4264914;27;20095;-59
2023/10/29 07:30:45;;;;;;;14.70;3.40;;;14.30;99.90;;;;;;4265138;27;20131;-57
2023/10/29 07:32:47;;;;;;;15.35;2.97;;;14.20;99.90;;;;;;4264706;27;20046;-55
2023/10/29 07:34:51;;;;;;;16.17;3.08;;;14.30;99.90;;;;;;4265129;27;20123;-58
2023/10/29 07:36:53;;;;;;;14.02;3.75;;;14.30;99.90;;;;;;4265044;27;20085;-59
2023/10/29 07:38:55;;;;;;;10.48;3.13;;;14.30;99.90;;;;;;4265153;27;20042;-60
2023/10/29 07:40:57;;;;;;;13.45;2.95;;;14.40;99.90;;;;;;4264895;27;20089;-64
2023/10/29 07:42:59;;;;;;;13.68;3.08;;;14.40;99.90;;;;;;4264868;27;20421;-58
2023/10/29 07:45:03;;;;;;;15.18;3.30;;;14.50;99.90;;;;;;4265024;27;20043;-59
2023/10/29 07:47:08;;;;;;;18.77;4.57;;;14.50;99.90;;;;;;4264701;27;20067;-60
2023/10/29 07:49:10;;;;;;;17.77;3.75;;;14.50;99.90;;;;;;4264595;27;20469;-61
2023/10/29 07:51:13;;;;;;;17.70;2.95;;;14.50;99.90;;;;;;4264730;27;20223;-61
2023/10/29 07:53:16;;;;;;;16.77;3.42;;;14.60;99.90;;;;;;4264778;27;20047;-60
2023/10/29 07:55:19;;;;;;;16.35;3.75;;;14.60;99.90;;;;;;4264551;27;20140;-61
2023/10/29 07:57:21;;;;;;;10.30;2.75;;;14.50;99.90;;;;;;4265006;27;20047;-61
2023/10/29 07:59:23;;;;;;;16.20;3.47;;;14.60;99.90;;;;;;4266454;27;20058;-58
2023/10/29 08:01:25;;;;;;;13.75;2.83;;;14.60;99.90;;;;;;4266764;27;20152;-59
2023/10/29 08:03:28;;;;;;;10.50;2.40;;;14.60;99.90;;;;;;4267803;27;20110;-65
2023/10/29 08:05:30;;;;;;;10.80;3.30;;;14.60;99.90;;;;;;4268906;27;20043;-60
2023/10/29 08:07:33;;;;;;;17.48;3.00;;;14.60;99.90;;;;;;4268719;27;20051;-58
2023/10/29 08:09:35;;;;;;;10.63;2.53;;;14.60;99.90;;;;;;4267517;27;20046;-64
2023/10/29 08:11:38;;;;;;;11.38;2.92;;;14.60;99.90;;;;;;4268611;27;20051;-68
2023/10/29 08:13:40;;;;;;;12.80;3.03;;;14.60;99.90;;;;;;4249401;28;20059;-57
2023/10/29 08:15:42;;;;;;;12.65;2.80;;;14.70;99.90;;;;;;4267722;27;20046;-62
2023/10/29 08:17:44;;;;;;;12.55;2.50;;;14.60;99.90;;;;;;4267507;27;20042;-73
2023/10/29 08:19:47;;;;;;;10.63;2.58;;;14.60;99.90;;;;;;4266888;27;20071;-60
2023/10/29 08:21:49;;;;;;;11.77;2.58;;;14.60;99.90;;;;;;4267161;27;20066;-62
2023/10/29 08:23:53;;;;;;;15.48;2.75;;;14.70;99.90;;;;;;4267554;27;20103;-58
2023/10/29 08:25:55;;;;;;;12.30;3.50;;;14.70;99.90;;;;;;4249035;28;20055;-60
2023/10/29 08:27:57;;;;;;;13.68;2.78;;;14.70;99.90;;;;;;4266749;27;20042;-62
2023/10/29 08:29:59;;;;;;;11.52;2.78;;;14.80;99.90;;;;;;4266065;27;20078;-58
2023/10/29 08:32:02;;;;;;;14.65;2.78;;;14.80;99.90;;;;;;4265138;27;20478;-57
2023/10/29 08:34:04;;;;;;;9.45;2.67;;;14.90;99.90;;;;;;4268242;27;20049;-57
2023/10/29 08:36:07;;;;;;;8.15;2.42;;;14.90;99.90;;;;;;4268102;27;20046;-57
2023/10/29 08:38:09;;;;;;;11.52;2.65;;;14.90;99.90;;;;;;4267738;27;20403;-57
2023/10/29 08:40:13;;;;;;;10.55;2.40;;;14.70;99.90;;;;;;4267789;27;20338;-57
2023/10/29 08:42:15;;;;;;;12.40;3.00;;;14.70;99.90;;;;;;4267904;27;20054;-57
2023/10/29 08:44:20;;;;;;;14.27;3.22;;;14.70;99.90;;;;;;4267657;27;20054;-57
2023/10/29 08:46:22;;;;;;;11.68;3.17;;;14.70;99.90;;;;;;4267928;27;20047;-57
2023/10/29 08:48:25;;;;;;;11.60;2.72;;;14.70;99.90;;;;;;4267749;27;20043;-57
2023/10/29 08:50:30;;;;;;;11.50;2.15;;;14.60;99.90;;;;;;4267451;27;20051;-57
2023/10/29 08:52:32;;;;;;;8.15;2.00;;;14.60;99.90;;;;;;4249093;27;20530;-57
2023/10/29 08:54:35;;;;;;;9.30;2.17;;;14.60;99.90;;;;;;4267443;27;20106;-57
2023/10/29 08:56:38;;;;;;;4.22;1.40;;;14.50;99.90;;;;;;4267330;27;20065;-58
2023/10/29 08:58:41;;;;;;;6.85;1.98;;;14.50;99.90;;;;;;4267134;27;20424;-56
2023/10/29 09:00:45;;;;;;;8.57;2.05;;;14.50;99.90;;;;;;4249341;27;20047;-56
2023/10/29 09:02:48;;;;;;;;;;;14.50;99.90;;;;;;4267930;27;20099;-60
2023/10/29 09:04:56;;;;;;;5.43;2.20;;;14.50;99.90;;;;;;4267470;27;19919;-57
2023/10/29 09:06:58;;;;;;;7.07;1.83;;;14.60;99.90;;;;;;4267580;27;20049;-59
2023/10/29 09:09:01;;;;;;;5.70;1.85;;;14.50;99.90;;;;;;4267066;27;20053;-59
2023/10/29 09:11:03;;;;;;;4.30;1.40;;;14.60;99.90;;;;;;4267279;27;20095;-59
2023/10/29 09:13:06;;;;;;;4.95;1.65;;;14.60;99.90;;;;;;4268402;27;20051;-62
2023/10/29 09:15:09;;;;;;;8.88;2.63;;;14.70;99.90;;;;;;4268326;27;20042;-59
2023/10/29 09:17:12;;;;;;;6.82;2.20;;;14.80;99.90;;;;;;4267706;27;20407;-58
2023/10/29 09:19:15;;;;;;;7.38;2.30;;;14.70;99.90;;;;;;4266963;27;20484;-58
2023/10/29 09:21:17;;;;;;;5.20;1.70;;;14.90;99.90;;;;;;4267005;27;20053;-59
2023/10/29 09:23:19;;;;;;;5.95;1.85;;;14.90;99.90;;;;;;4267004;27;20058;-57
2023/10/29 09:25:21;;;;;;;6.47;1.70;;;14.90;99.90;;;;;;4266953;27;20487;-58
2023/10/29 09:27:23;;;;;;;4.97;1.77;;;14.90;99.90;;;;;;4266457;27;20484;-59
2023/10/29 09:29:31;;;;;;;7.32;1.50;;;14.80;99.90;;;;;;4267124;27;20066;-59
2023/10/29 09:31:32;;;;;;;3.92;1.50;;;14.70;99.90;;;;;;4267349;27;20117;-62
2023/10/29 09:33:35;;;;;;;6.32;1.55;;;14.80;99.90;;;;;;4267185;27;20053;-58
2023/10/29 09:35:40;;;;;;;5.15;1.70;;;14.80;99.90;;;;;;4267123;27;20054;-63
2023/10/29 09:37:43;;;;;;;;;;;14.80;99.90;;;;;;4248958;27;20435;-58
2023/10/29 09:39:45;;;;;;;5.43;1.77;;;14.80;99.90;;;;;;4266687;27;19930;-58
2023/10/29 09:41:51;;;;;;;5.25;1.60;;;14.70;99.90;;;;;;4266760;27;20131;-59
2023/10/29 09:43:53;;;;;;;7.57;1.70;;;14.70;99.90;;;;;;4266195;27;20046;-59
2023/10/29 09:45:59;;;;;;;7.53;1.67;;;14.70;99.90;;;;;;4266505;27;20069;-57
2023/10/29 09:48:02;;;;;;;4.35;1.42;;;14.70;99.90;;;;;;4266602;27;20058;-59
2023/10/29 09:50:09;;;;;;;4.95;1.90;;;14.70;99.90;;;;;;4266530;27;20117;-58
2023/10/29 09:52:13;;;;;;;4.20;1.30;;;14.70;99.90;;;;;;4267057;27;20068;-60
2023/10/29 09:54:15;;;;;;;6.05;1.85;;;14.70;99.90;;;;;;4266475;27;20051;-61
2023/10/29 09:56:21;;;;;;;7.93;1.50;;;14.70;99.90;;;;;;4266341;27;20586;-60
2023/10/29 09:58:24;;;;;;;4.93;1.45;;;14.70;99.90;;;;;;4267726;27;20045;-65
2023/10/29 10:00:26;;;;;;;5.47;1.55;;;14.60;99.90;;;;;;4269047;27;20048;-58
2023/10/29 10:02:30;;;;;;;8.02;1.63;;;14.70;99.90;;;;;;4250131;27;20066;-59
2023/10/29 10:04:32;;;;;;;5.25;1.70;;;14.60;99.90;;;;;;4266910;27;20051;-58
2023/10/29 10:06:36;;;;;;;4.30;1.67;;;14.60;99.90;;;;;;4266516;27;20039;-60
2023/10/29 10:08:38;;;;;;;5.63;1.67;;;14.80;99.90;;;;;;4266565;27;20042;-64
2023/10/29 10:10:43;;;;;;;5.97;1.30;;;14.90;99.90;;;;;;4266353;27;20070;-60
2023/10/29 10:12:46;;;;;;;6.07;1.42;;;14.90;99.90;;;;;;4265963;27;20047;-60
2023/10/29 10:14:49;;;;;;;3.88;1.23;;;15.00;99.90;;;;;;4266412;27;20072;-61
2023/10/29 10:17:07;;;;;;;4.50;1.67;;;14.90;99.90;;;;;;4247840;27;20047;-60
2023/10/29 10:19:13;;;;;;;3.90;1.40;;;15.00;99.90;;;;;;4266084;27;20446;-60
2023/10/29 10:21:16;;;;;;;5.63;1.45;;;15.00;99.90;;;;;;4247714;27;20121;-60
2023/10/29 10:23:18;;;;;;;6.30;1.30;;;15.00;99.90;;;;;;4266186;27;20049;-60
2023/10/29 10:25:20;;;;;;;4.07;1.17;;;15.10;99.90;;;;;;4265848;27;20051;-59
2023/10/29 10:27:22;;;;;;;3.83;1.48;;;15.10;99.90;;;;;;4266079;27;20130;-62
2023/10/29 10:29:33;;;;;;;4.60;1.40;;;15.20;99.90;;;;;;4267224;27;20038;-65
2023/10/29 10:31:35;;;;;;;6.70;1.55;;;15.20;99.90;;;;;;4266531;27;20529;-59
2023/10/29 10:33:38;;;;;;;4.40;1.45;;;15.30;99.90;;;;;;4265857;27;20410;-60